sensor_id;sensor_type;location;lat;lon;timestamp;pressure;altitude;pressure_sealevel;temperature;humidity
15308;BME280;7755;52.208;6.964;2023-03-19T00:00:15;100723.63;;;10.07;100.00
15308;BME280;7755;52.208;6.964;2023-03-19T00:04:18;100725.53;;;10.07;100.00
15308;BME280;7755;52.208;6.964;2023-03-19T00:08:22;100732.59;;;10.08;100.00
15308;BME280;7755;52.208;6.964;2023-03-19T00:12:26;100746.56;;;10.11;100.00
15308;BME280;7755;52.208;6.964;2023-03-19T00:16:29;100761.78;;;10.12;100.00
15308;BME280;7755;52.208;6.964;2023-03-19T00:20:34;100766.41;;;10.12;100.00
15308;BME280;7755;52.208;6.964;2023-03-19T00:24:37;100760.59;;;10.20;100.00
15308;BME280;7755;52.208;6.964;2023-03-19T00:28:42;100756.97;;;10.26;100.00
15308;BME280;7755;52.208;6.964;2023-03-19T00:32:45;100759.19;;;10.29;100.00
15308;BME280;7755;52.208;6.964;2023-03-19T00:36:49;100765.25;;;10.31;100.00
15308;BME280;7755;52.208;6.964;2023-03-19T00:40:52;100757.69;;;10.33;100.00
15308;BME280;7755;52.208;6.964;2023-03-19T00:44:57;100767.22;;;10.36;100.00
15308;BME280;7755;52.208;6.964;2023-03-19T00:49:00;100765.13;;;10.38;100.00
15308;BME280;7755;52.208;6.964;2023-03-19T00:53:03;100760.84;;;10.42;100.00
15308;BME280;7755;52.208;6.964;2023-03-19T00:57:07;100755.78;;;10.46;100.00
15308;BME280;7755;52.208;6.964;2023-03-19T01:01:13;100757.19;;;10.48;100.00
15308;BME280;7755;52.208;6.964;2023-03-19T01:05:18;100758.38;;;10.52;100.00
15308;BME280;7755;52.208;6.964;2023-03-19T01:09:21;100749.50;;;10.57;100.00
15308;BME280;7755;52.208;6.964;2023-03-19T01:13:24;100745.81;;;10.63;100.00
15308;BME280;7755;52.208;6.964;2023-03-19T01:17:28;100745.47;;;10.71;100.00
15308;BME280;7755;52.208;6.964;2023-03-19T01:21:31;100737.97;;;10.78;100.00
15308;BME280;7755;52.208;6.964;2023-03-19T01:25:38;100734.06;;;10.86;100.00
15308;BME280;7755;52.208;6.964;2023-03-19T01:29:41;100726.22;;;10.89;100.00
15308;BME280;7755;52.208;6.964;2023-03-19T01:33:52;100723.59;;;10.94;100.00
15308;BME280;7755;52.208;6.964;2023-03-19T01:38:14;100729.88;;;10.95;100.00
15308;BME280;7755;52.208;6.964;2023-03-19T01:42:21;100732.34;;;10.97;100.00
15308;BME280;7755;52.208;6.964;2023-03-19T01:46:48;100729.41;;;10.98;100.00
15308;BME280;7755;52.208;6.964;2023-03-19T01:51:34;100721.81;;;11.00;100.00
15308;BME280;7755;52.208;6.964;2023-03-19T01:55:47;100726.19;;;11.01;100.00
15308;BME280;7755;52.208;6.964;2023-03-19T02:00:03;100725.13;;;11.02;100.00
15308;BME280;7755;52.208;6.964;2023-03-19T02:04:17;100731.63;;;11.01;100.00
15308;BME280;7755;52.208;6.964;2023-03-19T02:08:23;100729.63;;;10.97;100.00
15308;BME280;7755;52.208;6.964;2023-03-19T02:12:26;100718.66;;;10.91;100.00
15308;BME280;7755;52.208;6.964;2023-03-19T02:16:30;100716.41;;;10.88;100.00
15308;BME280;7755;52.208;6.964;2023-03-19T02:20:36;100710.88;;;10.83;100.00
15308;BME280;7755;52.208;6.964;2023-03-19T02:24:50;100704.28;;;10.79;100.00
15308;BME280;7755;52.208;6.964;2023-03-19T02:28:57;100700.38;;;10.75;100.00
15308;BME280;7755;52.208;6.964;2023-03-19T02:33:08;100708.91;;;10.79;100.00
15308;BME280;7755;52.208;6.964;2023-03-19T02:37:16;100704.28;;;10.79;100.00
15308;BME280;7755;52.208;6.964;2023-03-19T02:41:20;100704.75;;;10.76;100.00
15308;BME280;7755;52.208;6.964;2023-03-19T02:45:27;100710.94;;;10.72;100.00
15308;BME280;7755;52.208;6.964;2023-03-19T02:49:31;100713.88;;;10.70;100.00
15308;BME280;7755;52.208;6.964;2023-03-19T02:53:34;100720.38;;;10.69;100.00
15308;BME280;7755;52.208;6.964;2023-03-19T02:57:37;100729.03;;;10.66;100.00
15308;BME280;7755;52.208;6.964;2023-03-19T03:01:42;100724.41;;;10.66;100.00
15308;BME280;7755;52.208;6.964;2023-03-19T03:05:45;100726.31;;;10.66;100.00
15308;BME280;7755;52.208;6.964;2023-03-19T03:09:48;100737.19;;;10.66;100.00
15308;BME280;7755;52.208;6.964;2023-03-19T03:13:51;100729.84;;;10.66;100.00
15308;BME280;7755;52.208;6.964;2023-03-19T03:17:56;100733.41;;;10.67;100.00
15308;BME280;7755;52.208;6.964;2023-03-19T03:21:59;100738.25;;;10.65;100.00
15308;BME280;7755;52.208;6.964;2023-03-19T03:26:03;100740.84;;;10.60;100.00
15308;BME280;7755;52.208;6.964;2023-03-19T03:30:09;100745.47;;;10.59;100.00
15308;BME280;7755;52.208;6.964;2023-03-19T03:34:13;100743.56;;;10.60;100.00
15308;BME280;7755;52.208;6.964;2023-03-19T03:38:16;100747.94;;;10.61;100.00
15308;BME280;7755;52.208;6.964;2023-03-19T03:42:20;100750.41;;;10.62;100.00
15308;BME280;7755;52.208;6.964;2023-03-19T03:46:24;100752.91;;;10.64;100.00
15308;BME280;7755;52.208;6.964;2023-03-19T03:50:28;100744.84;;;10.69;100.00
15308;BME280;7755;52.208;6.964;2023-03-19T03:54:36;100752.53;;;10.72;100.00
15308;BME280;7755;52.208;6.964;2023-03-19T03:58:39;100747.44;;;10.76;100.00
15308;BME280;7755;52.208;6.964;2023-03-19T04:02:42;100759.97;;;10.77;100.00
15308;BME280;7755;52.208;6.964;2023-03-19T04:06:50;100762.69;;;10.77;100.00
15308;BME280;7755;52.208;6.964;2023-03-19T04:11:06;100757.03;;;10.66;100.00
15308;BME280;7755;52.208;6.964;2023-03-19T04:15:10;100750.91;;;10.59;100.00
15308;BME280;7755;52.208;6.964;2023-03-19T04:19:16;100753.97;;;10.63;100.00
15308;BME280;7755;52.208;6.964;2023-03-19T04:23:21;100751.03;;;10.64;100.00
15308;BME280;7755;52.208;6.964;2023-03-19T04:27:24;100752.56;;;10.60;100.00
15308;BME280;7755;52.208;6.964;2023-03-19T04:31:28;100744.28;;;10.55;100.00
15308;BME280;7755;52.208;6.964;2023-03-19T04:35:32;100756.81;;;10.56;100.00
15308;BME280;7755;52.208;6.964;2023-03-19T04:39:37;100764.13;;;10.56;100.00
15308;BME280;7755;52.208;6.964;2023-03-19T04:43:40;100755.97;;;10.56;100.00
15308;BME280;7755;52.208;6.964;2023-03-19T04:47:44;100769.56;;;10.56;100.00
15308;BME280;7755;52.208;6.964;2023-03-19T04:51:47;100770.06;;;10.53;100.00
15308;BME280;7755;52.208;6.964;2023-03-19T04:55:52;100774.44;;;10.54;100.00
15308;BME280;7755;52.208;6.964;2023-03-19T04:59:54;100780.94;;;10.53;100.00
15308;BME280;7755;52.208;6.964;2023-03-19T05:03:58;100770.91;;;10.53;100.00
15308;BME280;7755;52.208;6.964;2023-03-19T05:08:01;100779.63;;;10.55;100.00
15308;BME280;7755;52.208;6.964;2023-03-19T05:12:07;100779.16;;;10.58;100.00
15308;BME280;7755;52.208;6.964;2023-03-19T05:16:16;100775.63;;;10.58;100.00
15308;BME280;7755;52.208;6.964;2023-03-19T05:20:19;100781.28;;;10.56;100.00
15308;BME280;7755;52.208;6.964;2023-03-19T05:24:28;100786.25;;;10.59;100.00
15308;BME280;7755;52.208;6.964;2023-03-19T05:28:35;100782.22;;;10.62;100.00
15308;BME280;7755;52.208;6.964;2023-03-19T05:32:38;100778.44;;;10.63;100.00
15308;BME280;7755;52.208;6.964;2023-03-19T05:36:47;100777.84;;;10.61;100.00
15308;BME280;7755;52.208;6.964;2023-03-19T05:40:52;100780.31;;;10.62;100.00
15308;BME280;7755;52.208;6.964;2023-03-19T05:45:04;100786.38;;;10.64;100.00
15308;BME280;7755;52.208;6.964;2023-03-19T05:49:18;100786.38;;;10.64;100.00
15308;BME280;7755;52.208;6.964;2023-03-19T05:53:22;100795.25;;;10.60;100.00
15308;BME280;7755;52.208;6.964;2023-03-19T05:57:48;100798.31;;;10.63;100.00
15308;BME280;7755;52.208;6.964;2023-03-19T06:02:00;100809.19;;;10.63;100.00
15308;BME280;7755;52.208;6.964;2023-03-19T06:06:06;100818.38;;;10.62;100.00
15308;BME280;7755;52.208;6.964;2023-03-19T06:10:15;100817.94;;;10.65;100.00
15308;BME280;7755;52.208;6.964;2023-03-19T06:14:22;100828.31;;;10.69;100.00
15308;BME280;7755;52.208;6.964;2023-03-19T06:18:47;100828.06;;;10.70;100.00
15308;BME280;7755;52.208;6.964;2023-03-19T06:22:50;100816.63;;;10.68;100.00
15308;BME280;7755;52.208;6.964;2023-03-19T06:26:55;100816.63;;;10.68;100.00
15308;BME280;7755;52.208;6.964;2023-03-19T06:30:59;100832.69;;;10.70;100.00
15308;BME280;7755;52.208;6.964;2023-03-19T06:35:27;100835.78;;;10.73;100.00
15308;BME280;7755;52.208;6.964;2023-03-19T06:39:30;100833.06;;;10.73;100.00
15308;BME280;7755;52.208;6.964;2023-03-19T06:43:33;100834.25;;;10.77;100.00
15308;BME280;7755;52.208;6.964;2023-03-19T06:47:39;100842.28;;;10.84;100.00
15308;BME280;7755;52.208;6.964;2023-03-19T06:51:44;100838.25;;;10.86;100.00
15308;BME280;7755;52.208;6.964;2023-03-19T06:55:47;100853.25;;;10.89;100.00
15308;BME280;7755;52.208;6.964;2023-03-19T06:59:50;100851.59;;;10.88;100.00
15308;BME280;7755;52.208;6.964;2023-03-19T07:03:53;100867.44;;;10.91;100.00
15308;BME280;7755;52.208;6.964;2023-03-19T07:07:59;100858.22;;;10.92;100.00
15308;BME280;7755;52.208;6.964;2023-03-19T07:12:03;100860.69;;;10.93;100.00
15308;BME280;7755;52.208;6.964;2023-03-19T07:16:07;100869.19;;;10.97;100.00
15308;BME280;7755;52.208;6.964;2023-03-19T07:20:11;100879.03;;;10.98;100.00
15308;BME280;7755;52.208;6.964;2023-03-19T07:24:15;100874.41;;;10.99;100.00
15308;BME280;7755;52.208;6.964;2023-03-19T07:28:18;100882.66;;;11.04;100.00
15308;BME280;7755;52.208;6.964;2023-03-19T07:32:22;100893.66;;;11.09;100.00
15308;BME280;7755;52.208;6.964;2023-03-19T07:36:25;100885.94;;;11.17;100.00
15308;BME280;7755;52.208;6.964;2023-03-19T07:40:30;100891.63;;;11.28;100.00
15308;BME280;7755;52.208;6.964;2023-03-19T07:44:33;100896.44;;;11.37;100.00
15308;BME280;7755;52.208;6.964;2023-03-19T07:48:36;100900.19;;;11.48;100.00
15308;BME280;7755;52.208;6.964;2023-03-19T07:52:39;100905.25;;;11.56;100.00
15308;BME280;7755;52.208;6.964;2023-03-19T07:56:43;100897.91;;;11.57;100.00
15308;BME280;7755;52.208;6.964;2023-03-19T08:00:46;100905.84;;;11.58;100.00
15308;BME280;7755;52.208;6.964;2023-03-19T08:04:51;100907.97;;;11.56;100.00
15308;BME280;7755;52.208;6.964;2023-03-19T08:08:55;100906.34;;;11.55;100.00
15308;BME280;7755;52.208;6.964;2023-03-19T08:12:59;100917.59;;;11.59;100.00
15308;BME280;7755;52.208;6.964;2023-03-19T08:17:02;100920.38;;;11.64;100.00
15308;BME280;7755;52.208;6.964;2023-03-19T08:21:05;100922.28;;;11.63;100.00
15308;BME280;7755;52.208;6.964;2023-03-19T08:25:09;100914.19;;;11.52;100.00
15308;BME280;7755;52.208;6.964;2023-03-19T08:29:14;100929.44;;;11.53;100.00
15308;BME280;7755;52.208;6.964;2023-03-19T08:33:19;100933.44;;;11.62;100.00
15308;BME280;7755;52.208;6.964;2023-03-19T08:37:23;100931.63;;;11.67;100.00
15308;BME280;7755;52.208;6.964;2023-03-19T08:41:26;100939.66;;;11.74;100.00
15308;BME280;7755;52.208;6.964;2023-03-19T08:45:30;100936.94;;;11.86;100.00
15308;BME280;7755;52.208;6.964;2023-03-19T08:49:33;100951.41;;;12.03;100.00
15308;BME280;7755;52.208;6.964;2023-03-19T08:53:37;100945.25;;;12.08;100.00
15308;BME280;7755;52.208;6.964;2023-03-19T08:57:40;100957.44;;;12.05;100.00
15308;BME280;7755;52.208;6.964;2023-03-19T09:01:49;100952.00;;;12.05;100.00
15308;BME280;7755;52.208;6.964;2023-03-19T09:05:52;100965.25;;;12.13;100.00
15308;BME280;7755;52.208;6.964;2023-03-19T09:09:55;100971.84;;;12.17;100.00
15308;BME280;7755;52.208;6.964;2023-03-19T09:13:58;100971.03;;;12.17;100.00
15308;BME280;7755;52.208;6.964;2023-03-19T09:18:02;100982.28;;;12.20;100.00
15308;BME280;7755;52.208;6.964;2023-03-19T09:22:06;100979.97;;;12.29;100.00
15308;BME280;7755;52.208;6.964;2023-03-19T09:26:09;100975.91;;;12.32;100.00
15308;BME280;7755;52.208;6.964;2023-03-19T09:30:12;100974.47;;;12.41;100.00
15308;BME280;7755;52.208;6.964;2023-03-19T09:34:17;100984.13;;;12.48;100.00
15308;BME280;7755;52.208;6.964;2023-03-19T09:38:20;100987.03;;;12.58;100.00
15308;BME280;7755;52.208;6.964;2023-03-19T09:42:39;100983.34;;;12.81;100.00
15308;BME280;7755;52.208;6.964;2023-03-19T09:46:50;100991.41;;;13.10;100.00
15308;BME280;7755;52.208;6.964;2023-03-19T09:50:58;100995.03;;;13.32;100.00
15308;BME280;7755;52.208;6.964;2023-03-19T09:55:11;100995.06;;;13.76;100.00
15308;BME280;7755;52.208;6.964;2023-03-19T09:59:16;100990.44;;;14.26;100.00
15308;BME280;7755;52.208;6.964;2023-03-19T10:03:36;101004.34;;;14.46;100.00
15308;BME280;7755;52.208;6.964;2023-03-19T10:07:53;101008.19;;;14.23;100.00
15308;BME280;7755;52.208;6.964;2023-03-19T10:12:15;101003.44;;;14.13;100.00
15308;BME280;7755;52.208;6.964;2023-03-19T10:16:23;101015.72;;;14.11;100.00
15308;BME280;7755;52.208;6.964;2023-03-19T10:20:34;101006.31;;;14.29;100.00
15308;BME280;7755;52.208;6.964;2023-03-19T10:24:41;101011.97;;;14.44;98.66
15308;BME280;7755;52.208;6.964;2023-03-19T10:28:53;101018.34;;;14.50;96.86
15308;BME280;7755;52.208;6.964;2023-03-19T10:33:04;101007.25;;;14.66;94.51
15308;BME280;7755;52.208;6.964;2023-03-19T10:37:14;101012.75;;;15.03;96.73
15308;BME280;7755;52.208;6.964;2023-03-19T10:41:28;101000.69;;;15.42;92.59
15308;BME280;7755;52.208;6.964;2023-03-19T10:45:35;101011.81;;;15.67;89.89
15308;BME280;7755;52.208;6.964;2023-03-19T10:49:41;101019.63;;;15.96;87.28
15308;BME280;7755;52.208;6.964;2023-03-19T10:53:44;101018.84;;;16.16;87.81
15308;BME280;7755;52.208;6.964;2023-03-19T10:57:50;101025.72;;;16.23;87.32
15308;BME280;7755;52.208;6.964;2023-03-19T11:02:00;101024.94;;;16.33;86.25
15308;BME280;7755;52.208;6.964;2023-03-19T11:06:08;101022.53;;;16.62;86.95
15308;BME280;7755;52.208;6.964;2023-03-19T11:10:19;101024.72;;;16.55;84.79
15308;BME280;7755;52.208;6.964;2023-03-19T11:14:28;101026.03;;;16.27;85.21
15308;BME280;7755;52.208;6.964;2023-03-19T11:18:36;101031.72;;;16.00;86.42
15308;BME280;7755;52.208;6.964;2023-03-19T11:22:40;101024.56;;;16.04;86.67
15308;BME280;7755;52.208;6.964;2023-03-19T11:26:53;101030.41;;;16.28;85.90
15308;BME280;7755;52.208;6.964;2023-03-19T11:31:03;101026.34;;;16.66;86.07
15308;BME280;7755;52.208;6.964;2023-03-19T11:35:10;101010.47;;;17.14;82.25
15308;BME280;7755;52.208;6.964;2023-03-19T11:39:26;101022.81;;;17.22;77.93
15308;BME280;7755;52.208;6.964;2023-03-19T11:43:57;101013.47;;;17.23;76.02
15308;BME280;7755;52.208;6.964;2023-03-19T11:52:33;101014.16;;;17.84;72.61
15308;BME280;7755;52.208;6.964;2023-03-19T11:56:42;101007.47;;;18.00;73.95
15308;BME280;7755;52.208;6.964;2023-03-19T12:00:49;101002.97;;;18.20;69.82
15308;BME280;7755;52.208;6.964;2023-03-19T12:05:18;101005.41;;;18.21;64.86
15308;BME280;7755;52.208;6.964;2023-03-19T12:09:28;101005.91;;;18.34;67.39
15308;BME280;7755;52.208;6.964;2023-03-19T12:13:48;101004.25;;;18.33;63.24
15308;BME280;7755;52.208;6.964;2023-03-19T12:18:00;101002.72;;;18.16;62.31
15308;BME280;7755;52.208;6.964;2023-03-19T12:22:15;101003.28;;;18.13;64.11
15308;BME280;7755;52.208;6.964;2023-03-19T12:26:30;101001.97;;;18.50;64.54
15308;BME280;7755;52.208;6.964;2023-03-19T12:30:38;101004.09;;;18.97;63.27
15308;BME280;7755;52.208;6.964;2023-03-19T12:34:46;101000.78;;;18.95;60.42
15308;BME280;7755;52.208;6.964;2023-03-19T12:38:53;101011.44;;;19.07;59.23
15308;BME280;7755;52.208;6.964;2023-03-19T12:43:06;100998.13;;;19.14;59.41
15308;BME280;7755;52.208;6.964;2023-03-19T12:47:17;100993.75;;;19.37;58.90
15308;BME280;7755;52.208;6.964;2023-03-19T12:51:26;101001.56;;;19.59;58.67
15308;BME280;7755;52.208;6.964;2023-03-19T12:55:36;101000.25;;;19.75;56.71
15308;BME280;7755;52.208;6.964;2023-03-19T12:59:49;101001.78;;;19.62;56.26
15308;BME280;7755;52.208;6.964;2023-03-19T13:03:58;101003.88;;;19.71;58.31
15308;BME280;7755;52.208;6.964;2023-03-19T13:08:09;101008.50;;;19.22;56.56
15308;BME280;7755;52.208;6.964;2023-03-19T13:12:19;101016.38;;;18.76;58.40
15308;BME280;7755;52.208;6.964;2023-03-19T13:16:32;101013.63;;;18.76;59.51
15308;BME280;7755;52.208;6.964;2023-03-19T13:20:52;101009.19;;;18.80;58.19
15308;BME280;7755;52.208;6.964;2023-03-19T13:24:59;100997.97;;;18.71;58.85
15308;BME280;7755;52.208;6.964;2023-03-19T13:29:08;100996.88;;;18.62;58.31
15308;BME280;7755;52.208;6.964;2023-03-19T13:33:20;100991.00;;;18.79;57.77
15308;BME280;7755;52.208;6.964;2023-03-19T13:37:23;100983.69;;;18.98;56.18
15308;BME280;7755;52.208;6.964;2023-03-19T13:41:47;100989.78;;;19.24;55.09
15308;BME280;7755;52.208;6.964;2023-03-19T13:45:51;100989.81;;;19.43;53.96
15308;BME280;7755;52.208;6.964;2023-03-19T13:50:17;100998.13;;;19.14;54.61
15308;BME280;7755;52.208;6.964;2023-03-19T13:54:32;100987.97;;;19.39;54.99
15308;BME280;7755;52.208;6.964;2023-03-19T13:58:47;100988.88;;;19.29;53.72
15308;BME280;7755;52.208;6.964;2023-03-19T14:02:52;100991.66;;;19.53;53.79
15308;BME280;7755;52.208;6.964;2023-03-19T14:07:02;100994.88;;;19.65;52.35
15308;BME280;7755;52.208;6.964;2023-03-19T14:11:21;100983.69;;;19.75;52.47
15308;BME280;7755;52.208;6.964;2023-03-19T14:15:27;100987.28;;;19.23;52.45
15308;BME280;7755;52.208;6.964;2023-03-19T14:19:39;101000.16;;;18.69;54.96
15308;BME280;7755;52.208;6.964;2023-03-19T14:23:52;101014.72;;;18.36;55.43
15308;BME280;7755;52.208;6.964;2023-03-19T14:27:58;101007.94;;;18.18;57.08
15308;BME280;7755;52.208;6.964;2023-03-19T14:32:06;101006.56;;;18.15;57.99
15308;BME280;7755;52.208;6.964;2023-03-19T14:36:14;101014.91;;;17.95;58.95
15308;BME280;7755;52.208;6.964;2023-03-19T14:40:22;101023.25;;;17.64;58.95
15308;BME280;7755;52.208;6.964;2023-03-19T14:44:38;101019.19;;;17.46;61.36
15308;BME280;7755;52.208;6.964;2023-03-19T14:49:15;101011.25;;;17.30;62.30
15308;BME280;7755;52.208;6.964;2023-03-19T14:53:34;101023.94;;;16.95;63.48
15308;BME280;7755;52.208;6.964;2023-03-19T14:57:41;101018.72;;;17.09;65.30
15308;BME280;7755;52.208;6.964;2023-03-19T15:01:49;101015.13;;;17.24;64.29
15308;BME280;7755;52.208;6.964;2023-03-19T15:05:56;101017.25;;;17.47;63.49
15308;BME280;7755;52.208;6.964;2023-03-19T15:10:01;101012.28;;;17.54;64.27
15308;BME280;7755;52.208;6.964;2023-03-19T15:14:29;101016.19;;;17.38;65.08
15308;BME280;7755;52.208;6.964;2023-03-19T15:18:38;101016.50;;;17.11;65.18
15308;BME280;7755;52.208;6.964;2023-03-19T15:22:41;101014.06;;;16.89;65.73
15308;BME280;7755;52.208;6.964;2023-03-19T15:26:46;101022.81;;;16.71;66.78
15308;BME280;7755;52.208;6.964;2023-03-19T15:31:01;101023.34;;;16.62;67.67
15308;BME280;7755;52.208;6.964;2023-03-19T15:35:28;101028.84;;;16.62;68.79
15308;BME280;7755;52.208;6.964;2023-03-19T15:39:35;101045.00;;;16.44;70.90
15308;BME280;7755;52.208;6.964;2023-03-19T15:43:40;101039.75;;;16.37;72.19
15308;BME280;7755;52.208;6.964;2023-03-19T15:47:47;101046.06;;;16.27;73.54
15308;BME280;7755;52.208;6.964;2023-03-19T15:51:55;101042.97;;;16.08;75.44
15308;BME280;7755;52.208;6.964;2023-03-19T15:56:00;101044.03;;;15.92;76.96
15308;BME280;7755;52.208;6.964;2023-03-19T16:00:07;101046.16;;;15.80;77.95
15308;BME280;7755;52.208;6.964;2023-03-19T16:04:18;101056.22;;;15.69;81.68
15308;BME280;7755;52.208;6.964;2023-03-19T16:08:26;101066.72;;;15.40;86.57
15308;BME280;7755;52.208;6.964;2023-03-19T16:12:37;101069.00;;;15.16;88.55
15308;BME280;7755;52.208;6.964;2023-03-19T16:16:40;101068.63;;;15.02;90.29
15308;BME280;7755;52.208;6.964;2023-03-19T16:21:08;101063.94;;;14.98;92.29
15308;BME280;7755;52.208;6.964;2023-03-19T16:25:27;101063.88;;;14.93;93.44
15308;BME280;7755;52.208;6.964;2023-03-19T16:29:36;101074.28;;;14.91;94.36
15308;BME280;7755;52.208;6.964;2023-03-19T16:33:40;101078.69;;;14.97;94.58
15308;BME280;7755;52.208;6.964;2023-03-19T16:37:45;101085.03;;;15.02;94.91
15308;BME280;7755;52.208;6.964;2023-03-19T16:42:14;101093.25;;;14.97;96.08
15308;BME280;7755;52.208;6.964;2023-03-19T16:46:25;101107.66;;;14.88;96.77
15308;BME280;7755;52.208;6.964;2023-03-19T16:50:31;101100.88;;;14.95;96.87
15308;BME280;7755;52.208;6.964;2023-03-19T16:54:37;101115.34;;;14.91;96.70
15308;BME280;7755;52.208;6.964;2023-03-19T16:58:41;101112.84;;;14.89;96.82
15308;BME280;7755;52.208;6.964;2023-03-19T17:02:45;101113.88;;;14.83;97.04
15308;BME280;7755;52.208;6.964;2023-03-19T17:06:49;101129.03;;;14.64;98.36
15308;BME280;7755;52.208;6.964;2023-03-19T17:10:54;101130.34;;;14.61;98.58
15308;BME280;7755;52.208;6.964;2023-03-19T17:15:14;101137.06;;;14.48;99.42
15308;BME280;7755;52.208;6.964;2023-03-19T17:19:33;101150.25;;;14.35;100.00
15308;BME280;7755;52.208;6.964;2023-03-19T17:23:36;101152.06;;;14.24;100.00
15308;BME280;7755;52.208;6.964;2023-03-19T17:27:41;101159.94;;;14.20;100.00
15308;BME280;7755;52.208;6.964;2023-03-19T17:31:44;101169.03;;;14.04;100.00
15308;BME280;7755;52.208;6.964;2023-03-19T17:35:47;101173.63;;;13.82;100.00
15308;BME280;7755;52.208;6.964;2023-03-19T17:39:50;101187.94;;;13.38;100.00
15308;BME280;7755;52.208;6.964;2023-03-19T17:43:55;101187.13;;;13.09;100.00
15308;BME280;7755;52.208;6.964;2023-03-19T17:47:58;101205.47;;;12.97;100.00
15308;BME280;7755;52.208;6.964;2023-03-19T17:52:02;101211.25;;;12.72;100.00
15308;BME280;7755;52.208;6.964;2023-03-19T17:56:12;101221.66;;;12.47;100.00
15308;BME280;7755;52.208;6.964;2023-03-19T18:00:21;101234.94;;;12.32;100.00
15308;BME280;7755;52.208;6.964;2023-03-19T18:04:24;101243.72;;;12.22;100.00
15308;BME280;7755;52.208;6.964;2023-03-19T18:08:28;101250.38;;;12.14;100.00
15308;BME280;7755;52.208;6.964;2023-03-19T18:12:32;101250.50;;;12.08;100.00
15308;BME280;7755;52.208;6.964;2023-03-19T18:16:36;101260.78;;;12.06;100.00
15308;BME280;7755;52.208;6.964;2023-03-19T18:20:40;101256.66;;;12.03;100.00
15308;BME280;7755;52.208;6.964;2023-03-19T18:24:44;101258.19;;;11.99;100.00
15308;BME280;7755;52.208;6.964;2023-03-19T18:28:47;101270.38;;;11.85;100.00
15308;BME280;7755;52.208;6.964;2023-03-19T18:32:55;101277.44;;;11.74;100.00
15308;BME280;7755;52.208;6.964;2023-03-19T18:37:00;101287.75;;;11.72;100.00
15308;BME280;7755;52.208;6.964;2023-03-19T18:41:03;101291.06;;;11.74;100.00
15308;BME280;7755;52.208;6.964;2023-03-19T18:45:35;101298.84;;;11.59;100.00
15308;BME280;7755;52.208;6.964;2023-03-19T18:49:39;101305.66;;;11.49;100.00
15308;BME280;7755;52.208;6.964;2023-03-19T18:53:43;101301.63;;;11.40;100.00
15308;BME280;7755;52.208;6.964;2023-03-19T18:57:50;101304.59;;;11.39;100.00
15308;BME280;7755;52.208;6.964;2023-03-19T19:01:58;101312.13;;;11.37;100.00
15308;BME280;7755;52.208;6.964;2023-03-19T19:06:04;101316.16;;;11.34;100.00
15308;BME280;7755;52.208;6.964;2023-03-19T19:10:08;101308.22;;;11.33;100.00
15308;BME280;7755;52.208;6.964;2023-03-19T19:14:17;101324.09;;;11.36;100.00
15308;BME280;7755;52.208;6.964;2023-03-19T19:18:24;101321.00;;;11.32;100.00
15308;BME280;7755;52.208;6.964;2023-03-19T19:22:31;101334.72;;;11.26;100.00
15308;BME280;7755;52.208;6.964;2023-03-19T19:26:34;101330.78;;;11.21;100.00
15308;BME280;7755;52.208;6.964;2023-03-19T19:30:39;101339.41;;;11.18;100.00
15308;BME280;7755;52.208;6.964;2023-03-19T19:34:42;101344.69;;;11.13;100.00
15308;BME280;7755;52.208;6.964;2023-03-19T19:38:47;101353.31;;;11.10;100.00
15308;BME280;7755;52.208;6.964;2023-03-19T19:42:52;101360.50;;;11.05;100.00
15308;BME280;7755;52.208;6.964;2023-03-19T19:46:58;101369.94;;;11.02;100.00
15308;BME280;7755;52.208;6.964;2023-03-19T19:51:02;101364.13;;;10.99;100.00
15308;BME280;7755;52.208;6.964;2023-03-19T19:55:08;101375.47;;;10.96;100.00
15308;BME280;7755;52.208;6.964;2023-03-19T19:59:13;101375.59;;;10.82;100.00
15308;BME280;7755;52.208;6.964;2023-03-19T20:03:21;101387.44;;;10.70;100.00
15308;BME280;7755;52.208;6.964;2023-03-19T20:07:25;101383.06;;;10.69;100.00
15308;BME280;7755;52.208;6.964;2023-03-19T20:11:30;101384.53;;;10.71;100.00
15308;BME280;7755;52.208;6.964;2023-03-19T20:15:34;101379.28;;;10.70;100.00
15308;BME280;7755;52.208;6.964;2023-03-19T20:19:38;101383.06;;;10.69;100.00
15308;BME280;7755;52.208;6.964;2023-03-19T20:23:42;101394.25;;;10.60;100.00
15308;BME280;7755;52.208;6.964;2023-03-19T20:27:51;101396.38;;;10.58;100.00
15308;BME280;7755;52.208;6.964;2023-03-19T20:31:55;101393.19;;;10.61;100.00
15308;BME280;7755;52.208;6.964;2023-03-19T20:36:00;101387.97;;;10.60;100.00
15308;BME280;7755;52.208;6.964;2023-03-19T20:40:05;101396.97;;;10.60;100.00
15308;BME280;7755;52.208;6.964;2023-03-19T20:44:18;101399.44;;;10.62;100.00
15308;BME280;7755;52.208;6.964;2023-03-19T20:48:24;101409.50;;;10.61;100.00
15308;BME280;7755;52.208;6.964;2023-03-19T20:52:29;101400.91;;;10.64;100.00
15308;BME280;7755;52.208;6.964;2023-03-19T20:56:34;101400.69;;;10.66;100.00
15308;BME280;7755;52.208;6.964;2023-03-19T21:00:40;101382.47;;;10.66;100.00
15308;BME280;7755;52.208;6.964;2023-03-19T21:04:44;101377.50;;;10.63;100.00
15308;BME280;7755;52.208;6.964;2023-03-19T21:08:50;101388.97;;;10.65;100.00
15308;BME280;7755;52.208;6.964;2023-03-19T21:12:54;101400.69;;;10.66;100.00
15308;BME280;7755;52.208;6.964;2023-03-19T21:16:59;101403.41;;;10.66;100.00
15308;BME280;7755;52.208;6.964;2023-03-19T21:21:02;101397.31;;;10.71;100.00
15308;BME280;7755;52.208;6.964;2023-03-19T21:25:15;101410.44;;;10.74;100.00
15308;BME280;7755;52.208;6.964;2023-03-19T21:29:26;101401.44;;;10.73;100.00
15308;BME280;7755;52.208;6.964;2023-03-19T21:33:33;101411.09;;;10.69;100.00
15308;BME280;7755;52.208;6.964;2023-03-19T21:37:36;101413.00;;;10.69;100.00
15308;BME280;7755;52.208;6.964;2023-03-19T21:41:42;101415.94;;;10.67;100.00